Time;durP1;ratioP1;P1;durP2;ratioP2;P2;SDS_P1;SDS_P2;PMS_P1;PMS_P2;Temp;Humidity;BMP_temperature;BMP_pressure;BME280_temperature;BME280_humidity;BME280_pressure;Samples;Min_cycle;Max_cycle;Signal;HPM_P1;HPM_P2
2021/12/19 00:00:10;;;;;;;;;35.50;30.25;;;;;;;;5036687;28;45515;-69
2021/12/19 00:10:23;;;;;;;;;41.25;33.25;;;;;;;;5032967;28;45494;-68
2021/12/19 00:12:48;;;;;;;;;31.75;30.25;;;;;;;;5032662;28;45459;-69
2021/12/19 00:15:13;;;;;;;;;37.50;30.75;;;;;;;;5032212;28;45381;-68
2021/12/19 00:17:39;;;;;;;;;39.25;30.25;;;;;;;;5034519;28;45378;-68
2021/12/19 00:20:04;;;;;;;;;39.50;33.25;;;;;;;;5034259;28;45272;-68
2021/12/19 00:22:31;;;;;;;;;30.00;29.00;;;;;;;;5032947;28;47201;-70
2021/12/19 00:24:56;;;;;;;;;37.25;29.00;;;;;;;;5031583;28;45648;-69
2021/12/19 00:27:21;;;;;;;;;33.75;30.25;;;;;;;;5032333;28;45408;-68
2021/12/19 00:29:47;;;;;;;;;30.00;27.25;;;;;;;;5032303;28;45454;-69
2021/12/19 00:32:12;;;;;;;;;38.50;32.00;;;;;;;;5033537;28;45503;-68
2021/12/19 00:34:37;;;;;;;;;46.25;35.00;;;;;;;;5033432;28;45354;-67
2021/12/19 00:37:02;;;;;;;;;41.25;32.00;;;;;;;;5032771;28;45535;-68
2021/12/19 00:39:29;;;;;;;;;36.50;30.25;;;;;;;;5035743;28;45600;-68
2021/12/19 00:41:55;;;;;;;;;33.00;28.50;;;;;;;;5035361;28;47099;-70
2021/12/19 00:44:24;;;;;;;;;39.50;34.00;;;;;;;;5036329;28;45340;-68
2021/12/19 00:46:52;;;;;;;;;34.25;30.00;;;;;;;;5035914;28;45419;-68
2021/12/19 00:49:19;;;;;;;;;32.75;27.50;;;;;;;;5034309;28;45455;-68
2021/12/19 00:51:44;;;;;;;;;31.50;29.00;;;;;;;;5035778;28;46117;-69
2021/12/19 00:54:09;;;;;;;;;33.25;25.00;;;;;;;;5035702;28;45461;-68
2021/12/19 00:56:38;;;;;;;;;34.50;29.75;;;;;;;;5035810;28;45203;-68
2021/12/19 00:59:04;;;;;;;;;31.50;26.75;;;;;;;;5037223;28;45559;-68
2021/12/19 01:01:29;;;;;;;;;37.25;30.75;;;;;;;;5035531;28;46169;-68
2021/12/19 01:03:54;;;;;;;;;33.00;27.75;;;;;;;;5034876;28;45392;-68
2021/12/19 01:06:20;;;;;;;;;35.75;33.00;;;;;;;;5038513;28;45420;-68
2021/12/19 01:08:46;;;;;;;;;31.25;25.00;;;;;;;;5037421;28;45574;-68
2021/12/19 01:11:11;;;;;;;;;30.75;26.25;;;;;;;;5035854;28;45581;-68
2021/12/19 01:13:36;;;;;;;;;37.50;32.00;;;;;;;;5035531;28;45347;-68
2021/12/19 01:16:02;;;;;;;;;34.75;30.75;;;;;;;;5033703;28;45510;-68
2021/12/19 01:18:27;;;;;;;;;31.00;27.00;;;;;;;;5034725;28;45334;-67
2021/12/19 01:20:52;;;;;;;;;37.25;32.25;;;;;;;;5031221;28;46045;-68
2021/12/19 01:23:18;;;;;;;;;39.00;31.25;;;;;;;;5035394;28;45639;-69
2021/12/19 01:25:43;;;;;;;;;33.00;29.00;;;;;;;;5037367;28;45337;-69
2021/12/19 01:28:08;;;;;;;;;33.25;30.00;;;;;;;;5033050;28;45431;-68
2021/12/19 01:30:34;;;;;;;;;38.25;31.00;;;;;;;;5032951;28;45338;-68
2021/12/19 01:32:59;;;;;;;;;43.25;32.50;;;;;;;;5032820;28;45441;-67
2021/12/19 01:35:24;;;;;;;;;40.00;33.00;;;;;;;;5035669;28;45329;-67
2021/12/19 01:37:49;;;;;;;;;45.25;37.50;;;;;;;;5037347;28;45374;-67
2021/12/19 01:40:17;;;;;;;;;55.25;42.00;;;;;;;;5034872;28;46052;-67
2021/12/19 01:42:43;;;;;;;;;47.00;36.25;;;;;;;;5032425;28;45475;-68
2021/12/19 01:45:10;;;;;;;;;41.50;33.75;;;;;;;;5032669;28;45478;-68
2021/12/19 01:47:35;;;;;;;;;49.00;34.75;;;;;;;;5033681;28;45486;-68
2021/12/19 01:50:01;;;;;;;;;29.00;26.50;;;;;;;;5036217;28;46037;-68
2021/12/19 01:52:28;;;;;;;;;23.50;21.75;;;;;;;;5034667;28;45223;-68
2021/12/19 01:54:54;;;;;;;;;26.00;23.00;;;;;;;;5032357;28;45546;-69
2021/12/19 01:57:22;;;;;;;;;28.75;23.75;;;;;;;;5043460;28;45431;-69
2021/12/19 01:59:47;;;;;;;;;29.25;23.50;;;;;;;;5032983;28;46073;-68
2021/12/19 02:02:12;;;;;;;;;28.75;22.75;;;;;;;;5017486;28;45638;-67
2021/12/19 02:04:37;;;;;;;;;22.00;21.00;;;;;;;;5036793;28;45460;-67
2021/12/19 02:07:03;;;;;;;;;25.00;19.00;;;;;;;;5032789;28;45336;-68
2021/12/19 02:09:28;;;;;;;;;25.25;23.00;;;;;;;;5034243;28;45270;-67
2021/12/19 02:11:53;;;;;;;;;24.25;21.25;;;;;;;;5032335;28;45521;-67
2021/12/19 02:14:19;;;;;;;;;31.00;21.50;;;;;;;;5033692;28;45400;-67
2021/12/19 02:16:45;;;;;;;;;26.25;21.75;;;;;;;;5036872;28;45489;-68
2021/12/19 02:19:10;;;;;;;;;25.50;22.25;;;;;;;;5033871;28;46317;-68
2021/12/19 02:21:36;;;;;;;;;21.50;19.75;;;;;;;;5033119;28;45506;-67
2021/12/19 02:24:03;;;;;;;;;24.75;19.75;;;;;;;;5033021;28;45567;-67
2021/12/19 02:26:28;;;;;;;;;30.75;25.00;;;;;;;;5033036;28;45574;-67
2021/12/19 02:28:53;;;;;;;;;22.75;21.50;;;;;;;;5026226;28;46993;-68
2021/12/19 02:31:20;;;;;;;;;26.75;23.25;;;;;;;;5030927;28;45549;-67
2021/12/19 02:33:58;;;;;;;;;26.25;22.50;;;;;;;;5032833;28;45475;-67
2021/12/19 02:36:39;;;;;;;;;25.25;19.50;;;;;;;;5034773;28;45613;-67
2021/12/19 02:49:44;;;;;;;;;29.75;26.75;;;;;;;;5033817;28;45245;-68
2021/12/19 02:52:13;;;;;;;;;29.25;25.50;;;;;;;;5033402;28;45364;-68
2021/12/19 02:54:39;;;;;;;;;33.50;24.75;;;;;;;;5032164;28;45505;-68
2021/12/19 02:57:04;;;;;;;;;21.75;20.25;;;;;;;;5033930;28;45310;-68
2021/12/19 02:59:31;;;;;;;;;24.75;21.50;;;;;;;;5034612;28;46851;-68
2021/12/19 03:01:56;;;;;;;;;24.00;22.75;;;;;;;;5034752;28;45421;-67
2021/12/19 03:04:22;;;;;;;;;31.50;23.50;;;;;;;;5032727;28;45413;-68
2021/12/19 03:06:48;;;;;;;;;27.50;24.00;;;;;;;;5033428;28;45274;-67
2021/12/19 03:09:18;;;;;;;;;32.00;26.75;;;;;;;;5031808;28;46065;-68
2021/12/19 03:19:56;;;;;;;;;24.50;20.75;;;;;;;;5025420;28;45504;-67
2021/12/19 03:22:21;;;;;;;;;22.25;19.75;;;;;;;;5033435;28;45329;-68
2021/12/19 03:24:46;;;;;;;;;29.25;24.75;;;;;;;;5031142;28;45505;-68
2021/12/19 03:27:12;;;;;;;;;25.75;22.75;;;;;;;;5033657;28;45375;-67
2021/12/19 03:29:37;;;;;;;;;26.75;23.00;;;;;;;;5042239;28;45512;-68
2021/12/19 03:32:02;;;;;;;;;27.00;22.75;;;;;;;;5036213;28;45481;-67
2021/12/19 03:34:28;;;;;;;;;17.75;17.75;;;;;;;;5034152;28;45387;-67
2021/12/19 03:36:53;;;;;;;;;22.00;21.00;;;;;;;;5033401;28;45420;-68
2021/12/19 03:39:26;;;;;;;;;26.75;21.00;;;;;;;;5032784;28;46121;-68
2021/12/19 03:41:54;;;;;;;;;23.50;21.25;;;;;;;;5033311;28;45995;-68
2021/12/19 03:44:20;;;;;;;;;23.75;20.25;;;;;;;;5039087;28;45258;-68
2021/12/19 03:46:45;;;;;;;;;22.00;18.25;;;;;;;;5037873;28;45449;-68
2021/12/19 03:49:11;;;;;;;;;23.75;20.50;;;;;;;;5033635;28;46798;-68
2021/12/19 03:51:36;;;;;;;;;23.00;17.00;;;;;;;;5034388;28;45573;-68
2021/12/19 03:54:02;;;;;;;;;15.50;14.00;;;;;;;;5033171;28;45412;-68
2021/12/19 03:56:27;;;;;;;;;18.50;17.25;;;;;;;;5033532;28;45338;-68
2021/12/19 03:58:53;;;;;;;;;25.75;21.00;;;;;;;;5034966;28;46281;-67
2021/12/19 04:01:18;;;;;;;;;24.00;18.50;;;;;;;;5032386;28;45485;-67
2021/12/19 04:03:45;;;;;;;;;35.50;29.00;;;;;;;;5031488;28;45560;-67
2021/12/19 04:06:11;;;;;;;;;20.00;17.25;;;;;;;;5037469;28;45502;-68
2021/12/19 04:08:36;;;;;;;;;21.00;17.00;;;;;;;;5032605;28;45425;-67
2021/12/19 04:11:01;;;;;;;;;25.75;18.75;;;;;;;;5043955;28;45403;-66
2021/12/19 04:13:26;;;;;;;;;24.75;22.25;;;;;;;;5032959;28;45373;-71
2021/12/19 04:15:52;;;;;;;;;18.50;16.00;;;;;;;;5033061;28;45465;-67
2021/12/19 04:18:17;;;;;;;;;17.75;15.50;;;;;;;;5032605;28;46277;-67
2021/12/19 04:20:43;;;;;;;;;18.75;17.75;;;;;;;;5034533;28;45392;-67
2021/12/19 04:23:08;;;;;;;;;18.00;17.25;;;;;;;;5037483;28;45342;-66
2021/12/19 04:25:33;;;;;;;;;20.00;17.00;;;;;;;;5034210;28;45593;-67
2021/12/19 04:27:59;;;;;;;;;23.00;19.00;;;;;;;;5036934;28;46583;-67
2021/12/19 04:30:25;;;;;;;;;18.00;18.00;;;;;;;;5041710;28;45347;-67
2021/12/19 04:33:00;;;;;;;;;17.75;15.50;;;;;;;;5037739;28;45426;-67
2021/12/19 04:35:31;;;;;;;;;17.50;15.75;;;;;;;;5033124;28;45256;-67
2021/12/19 04:40:48;;;;;;;;;16.75;13.75;;;;;;;;5033195;28;46499;-67
2021/12/19 04:44:17;;;;;;;;;17.25;15.25;;;;;;;;5031264;28;45502;-67
2021/12/19 05:16:04;;;;;;;;;15.50;13.75;;;;;;;;4855096;29;45404;-68
2021/12/19 05:18:33;;;;;;;;;15.00;14.00;;;;;;;;4854843;29;45359;-68
2021/12/19 05:21:04;;;;;;;;;13.75;12.50;;;;;;;;4856011;29;46948;-68
2021/12/19 05:25:57;;;;;;;;;23.00;16.25;;;;;;;;4859273;29;45640;-69
2021/12/19 05:28:22;;;;;;;;;16.75;15.00;;;;;;;;4858951;29;45486;-67
2021/12/19 05:30:48;;;;;;;;;17.75;16.75;;;;;;;;4857974;29;46175;-67
2021/12/19 05:33:13;;;;;;;;;16.50;13.25;;;;;;;;4858762;29;45553;-67
2021/12/19 05:46:29;;;;;;;;;15.00;12.25;;;;;;;;5015773;28;45496;-67
2021/12/19 05:48:55;;;;;;;;;18.75;15.75;;;;;;;;5014893;28;45508;-66
2021/12/19 05:51:20;;;;;;;;;15.00;13.50;;;;;;;;5015153;28;46356;-67
2021/12/19 05:53:45;;;;;;;;;12.75;12.75;;;;;;;;5017882;28;45318;-68
2021/12/19 05:56:11;;;;;;;;;18.50;15.00;;;;;;;;5021707;28;45269;-67
2021/12/19 05:58:36;;;;;;;;;18.25;15.00;;;;;;;;5015198;28;45474;-67
2021/12/19 06:01:01;;;;;;;;;12.25;12.00;;;;;;;;5013284;28;45984;-67
2021/12/19 06:03:26;;;;;;;;;11.50;11.50;;;;;;;;5014114;28;45442;-67
2021/12/19 06:05:52;;;;;;;;;14.25;12.25;;;;;;;;5015144;28;45514;-67
2021/12/19 06:08:17;;;;;;;;;15.25;13.00;;;;;;;;5015458;28;45409;-67
2021/12/19 06:10:42;;;;;;;;;16.25;15.25;;;;;;;;5016862;28;45439;-68
2021/12/19 06:13:07;;;;;;;;;19.75;14.75;;;;;;;;5000410;28;45497;-67
2021/12/19 06:15:34;;;;;;;;;12.50;10.25;;;;;;;;5014627;28;45221;-67
2021/12/19 06:18:00;;;;;;;;;18.75;15.25;;;;;;;;5014388;28;45247;-67
2021/12/19 06:20:25;;;;;;;;;14.75;11.00;;;;;;;;5014496;28;46173;-68
2021/12/19 06:22:50;;;;;;;;;12.25;12.25;;;;;;;;5022728;28;45372;-69
2021/12/19 06:25:16;;;;;;;;;17.25;13.25;;;;;;;;5021058;28;45599;-68
2021/12/19 06:27:41;;;;;;;;;12.25;10.75;;;;;;;;5014313;28;45324;-68
2021/12/19 06:30:07;;;;;;;;;15.25;10.50;;;;;;;;5014410;28;46047;-68
2021/12/19 06:32:32;;;;;;;;;14.25;11.75;;;;;;;;5014332;28;45555;-68
2021/12/19 06:34:59;;;;;;;;;13.50;11.25;;;;;;;;5016510;28;45330;-68
2021/12/19 06:37:24;;;;;;;;;16.25;11.50;;;;;;;;5013027;28;45710;-68
2021/12/19 06:39:50;;;;;;;;;13.25;12.50;;;;;;;;5026617;28;46087;-67
2021/12/19 06:42:15;;;;;;;;;15.25;11.75;;;;;;;;5037903;28;45502;-67
2021/12/19 06:44:41;;;;;;;;;14.75;11.75;;;;;;;;5046065;28;45470;-67
2021/12/19 06:47:06;;;;;;;;;13.25;11.75;;;;;;;;5036404;28;45212;-67
2021/12/19 06:49:31;;;;;;;;;14.50;10.25;;;;;;;;5034194;28;48181;-67
2021/12/19 06:51:56;;;;;;;;;12.50;12.50;;;;;;;;5033419;28;45428;-66
2021/12/19 06:54:22;;;;;;;;;15.25;14.25;;;;;;;;5034569;28;45531;-67
2021/12/19 06:56:47;;;;;;;;;14.75;10.75;;;;;;;;5033812;28;45337;-68
2021/12/19 06:59:12;;;;;;;;;11.00;9.50;;;;;;;;5034729;28;46091;-67
2021/12/19 07:01:38;;;;;;;;;12.25;10.00;;;;;;;;5035576;28;45554;-67
2021/12/19 07:04:03;;;;;;;;;19.25;12.75;;;;;;;;5033498;28;45496;-67
2021/12/19 07:06:28;;;;;;;;;14.00;11.75;;;;;;;;5033686;28;45524;-68
2021/12/19 07:08:53;;;;;;;;;16.00;11.25;;;;;;;;5037211;28;45388;-67
2021/12/19 07:11:19;;;;;;;;;14.50;11.75;;;;;;;;5032982;28;45455;-68
2021/12/19 07:13:45;;;;;;;;;15.75;11.00;;;;;;;;5035509;28;45343;-68
2021/12/19 07:16:10;;;;;;;;;11.75;11.75;;;;;;;;5031653;28;45459;-67
2021/12/19 07:18:38;;;;;;;;;13.25;11.00;;;;;;;;5030872;28;46067;-68
2021/12/19 07:21:04;;;;;;;;;9.75;9.50;;;;;;;;5032784;28;45499;-68
2021/12/19 07:23:30;;;;;;;;;18.50;14.75;;;;;;;;5032882;28;45462;-67
2021/12/19 07:25:56;;;;;;;;;14.00;12.00;;;;;;;;5034607;28;45496;-69
2021/12/19 07:28:21;;;;;;;;;16.75;15.75;;;;;;;;5032238;28;47343;-69
2021/12/19 07:30:46;;;;;;;;;13.00;13.00;;;;;;;;5032635;28;45294;-68
2021/12/19 07:33:13;;;;;;;;;12.75;10.50;;;;;;;;5033296;28;45360;-68
2021/12/19 07:35:41;;;;;;;;;20.75;11.00;;;;;;;;5015647;28;45366;-68
2021/12/19 07:38:09;;;;;;;;;14.00;13.00;;;;;;;;5035451;28;46334;-67
2021/12/19 07:40:35;;;;;;;;;14.00;10.25;;;;;;;;5033649;28;45372;-67
2021/12/19 07:43:03;;;;;;;;;14.50;11.75;;;;;;;;5033109;28;45511;-67
2021/12/19 07:45:28;;;;;;;;;13.50;12.25;;;;;;;;5035286;28;45290;-68
2021/12/19 07:47:54;;;;;;;;;13.00;10.25;;;;;;;;5034925;28;46196;-68
2021/12/19 07:50:20;;;;;;;;;11.75;9.25;;;;;;;;5032912;28;45388;-68
2021/12/19 07:52:45;;;;;;;;;13.00;10.75;;;;;;;;5034954;28;45435;-68
2021/12/19 07:55:10;;;;;;;;;11.75;11.75;;;;;;;;5031731;28;45669;-68
2021/12/19 07:57:36;;;;;;;;;19.00;15.00;;;;;;;;5030725;28;46067;-68
2021/12/19 08:00:01;;;;;;;;;13.50;11.75;;;;;;;;5032131;28;45535;-68
2021/12/19 08:02:27;;;;;;;;;14.25;13.00;;;;;;;;5047988;28;45398;-68
2021/12/19 08:04:52;;;;;;;;;14.75;13.75;;;;;;;;5026766;28;45419;-68
2021/12/19 08:07:23;;;;;;;;;12.75;12.00;;;;;;;;5033676;28;46143;-68
2021/12/19 08:10:11;;;;;;;;;20.00;15.00;;;;;;;;5032102;28;45460;-67
2021/12/19 08:12:36;;;;;;;;;15.50;11.75;;;;;;;;5032128;28;45497;-68
2021/12/19 08:15:02;;;;;;;;;12.75;12.75;;;;;;;;5032106;28;45507;-67
2021/12/19 08:17:27;;;;;;;;;19.75;15.50;;;;;;;;5041440;28;46097;-68
2021/12/19 08:19:52;;;;;;;;;13.75;12.75;;;;;;;;5033887;28;45438;-68
2021/12/19 08:22:19;;;;;;;;;17.50;16.25;;;;;;;;5032647;28;45481;-70
2021/12/19 08:24:46;;;;;;;;;19.25;13.25;;;;;;;;5031637;28;45377;-68
2021/12/19 08:27:11;;;;;;;;;21.50;17.25;;;;;;;;5031445;28;45584;-68
2021/12/19 08:29:37;;;;;;;;;19.00;18.75;;;;;;;;5038577;28;45336;-68
2021/12/19 08:32:02;;;;;;;;;17.75;17.00;;;;;;;;5043121;28;45158;-68
2021/12/19 08:34:28;;;;;;;;;15.50;12.50;;;;;;;;5030436;28;45401;-68
2021/12/19 08:36:54;;;;;;;;;24.00;19.50;;;;;;;;5029582;28;46921;-68
2021/12/19 08:39:20;;;;;;;;;23.25;19.00;;;;;;;;5031438;28;45412;-68
2021/12/19 08:41:45;;;;;;;;;22.25;17.50;;;;;;;;5031744;28;45463;-68
2021/12/19 08:44:10;;;;;;;;;28.00;26.00;;;;;;;;5032715;28;45634;-68
2021/12/19 08:46:36;;;;;;;;;20.50;17.75;;;;;;;;5037631;28;47083;-68
2021/12/19 08:49:03;;;;;;;;;20.25;17.50;;;;;;;;5035680;28;45638;-68
2021/12/19 08:51:28;;;;;;;;;22.75;17.00;;;;;;;;5031479;28;45531;-67
2021/12/19 08:53:54;;;;;;;;;19.75;16.50;;;;;;;;5034701;28;45445;-68
2021/12/19 08:56:19;;;;;;;;;23.00;16.75;;;;;;;;5031771;28;45467;-67
2021/12/19 08:58:44;;;;;;;;;21.75;19.25;;;;;;;;5034055;28;45427;-68
2021/12/19 09:01:09;;;;;;;;;20.50;16.75;;;;;;;;5032190;28;45373;-68
2021/12/19 09:03:35;;;;;;;;;19.50;18.50;;;;;;;;5035094;28;45374;-69
2021/12/19 09:06:00;;;;;;;;;18.25;15.50;;;;;;;;5016910;28;46116;-67
2021/12/19 09:08:26;;;;;;;;;24.50;20.00;;;;;;;;5016833;28;45337;-67
2021/12/19 09:10:51;;;;;;;;;22.75;15.25;;;;;;;;5034681;28;45514;-67
2021/12/19 09:13:16;;;;;;;;;22.25;21.25;;;;;;;;5031457;28;45500;-67
2021/12/19 09:15:41;;;;;;;;;21.00;18.75;;;;;;;;5032526;28;46055;-68
2021/12/19 09:18:07;;;;;;;;;21.25;20.00;;;;;;;;5033544;28;45427;-68
2021/12/19 09:20:32;;;;;;;;;18.50;16.50;;;;;;;;5032964;28;45526;-68
2021/12/19 09:22:57;;;;;;;;;20.75;16.25;;;;;;;;5036644;28;45440;-69
2021/12/19 09:25:22;;;;;;;;;15.00;14.50;;;;;;;;5032886;28;45444;-67
2021/12/19 09:27:48;;;;;;;;;21.50;16.50;;;;;;;;5032257;28;45298;-70
2021/12/19 09:30:14;;;;;;;;;27.25;21.50;;;;;;;;5032604;28;45546;-69
2021/12/19 09:32:39;;;;;;;;;21.75;19.50;;;;;;;;5032274;28;45497;-68
2021/12/19 09:35:05;;;;;;;;;22.00;19.50;;;;;;;;5036269;28;46933;-68
2021/12/19 09:37:30;;;;;;;;;19.75;17.00;;;;;;;;5036338;28;45418;-68
2021/12/19 09:39:55;;;;;;;;;27.50;22.00;;;;;;;;5038558;28;45779;-68
2021/12/19 09:42:23;;;;;;;;;22.50;19.50;;;;;;;;5034184;28;46590;-69
2021/12/19 09:44:48;;;;;;;;;24.75;19.50;;;;;;;;5047864;28;46352;-68
2021/12/19 09:47:14;;;;;;;;;22.75;20.00;;;;;;;;5036821;28;45392;-69
2021/12/19 09:49:39;;;;;;;;;27.00;22.25;;;;;;;;5034275;28;45423;-69
2021/12/19 09:52:07;;;;;;;;;19.50;18.00;;;;;;;;5030822;28;45408;-69
2021/12/19 09:54:33;;;;;;;;;22.50;19.75;;;;;;;;5033144;28;46187;-69
2021/12/19 09:56:58;;;;;;;;;25.75;19.75;;;;;;;;5030911;28;45608;-68
2021/12/19 09:59:24;;;;;;;;;20.75;17.75;;;;;;;;5033291;28;45542;-68
2021/12/19 10:01:50;;;;;;;;;18.00;14.50;;;;;;;;5034993;28;45545;-67
2021/12/19 10:04:27;;;;;;;;;25.75;21.50;;;;;;;;5035930;28;46113;-70
2021/12/19 10:07:02;;;;;;;;;28.50;24.00;;;;;;;;5030881;28;45452;-70
2021/12/19 10:09:28;;;;;;;;;21.50;15.75;;;;;;;;5026596;28;45404;-67
2021/12/19 10:14:26;;;;;;;;;15.50;14.50;;;;;;;;5034294;28;45499;-69
2021/12/19 10:16:51;;;;;;;;;17.50;17.25;;;;;;;;5030871;28;45512;-68
2021/12/19 10:19:17;;;;;;;;;29.25;23.75;;;;;;;;5029707;28;45516;-68
2021/12/19 10:21:42;;;;;;;;;23.25;19.00;;;;;;;;5031921;28;45536;-68
2021/12/19 10:24:09;;;;;;;;;18.50;18.25;;;;;;;;5032640;28;46407;-69
2021/12/19 10:26:44;;;;;;;;;28.25;24.75;;;;;;;;5032186;28;45518;-68
2021/12/19 10:29:10;;;;;;;;;21.25;18.75;;;;;;;;5032255;28;45305;-69
2021/12/19 10:31:35;;;;;;;;;20.25;19.00;;;;;;;;5032530;28;45309;-69
2021/12/19 10:34:21;;;;;;;;;18.25;17.50;;;;;;;;5030841;28;46332;-69
2021/12/19 10:36:46;;;;;;;;;20.25;17.00;;;;;;;;5032114;28;45467;-69
2021/12/19 10:39:13;;;;;;;;;23.25;20.75;;;;;;;;5031877;28;45410;-70
2021/12/19 10:41:41;;;;;;;;;22.50;20.00;;;;;;;;5032037;28;45357;-68
2021/12/19 10:46:52;;;;;;;;;24.25;19.25;;;;;;;;4952821;28;45311;-69
2021/12/19 10:49:21;;;;;;;;;26.00;21.75;;;;;;;;4936200;28;45770;-69
2021/12/19 10:51:48;;;;;;;;;24.75;20.25;;;;;;;;4951044;28;45902;-70
2021/12/19 10:54:13;;;;;;;;;25.50;21.75;;;;;;;;4949196;28;45708;-69
2021/12/19 10:56:40;;;;;;;;;24.25;18.25;;;;;;;;4953980;28;45596;-69
2021/12/19 10:59:14;;;;;;;;;20.50;18.25;;;;;;;;4952001;28;45953;-69
2021/12/19 11:01:41;;;;;;;;;25.25;24.00;;;;;;;;4951931;28;45434;-69
2021/12/19 11:04:06;;;;;;;;;25.25;22.50;;;;;;;;4952234;28;45505;-70
2021/12/19 11:06:37;;;;;;;;;27.75;23.75;;;;;;;;4950269;28;45487;-69
2021/12/19 11:09:11;;;;;;;;;29.50;26.00;;;;;;;;4948777;28;45315;-69
2021/12/19 11:11:50;;;;;;;;;27.00;20.00;;;;;;;;4956634;28;45397;-70
2021/12/19 11:14:17;;;;;;;;;24.00;23.50;;;;;;;;4952177;28;46370;-70
2021/12/19 11:16:43;;;;;;;;;29.50;26.25;;;;;;;;4952041;28;45539;-70
2021/12/19 11:19:08;;;;;;;;;26.75;24.75;;;;;;;;4952005;28;45534;-71
2021/12/19 11:21:35;;;;;;;;;38.00;30.75;;;;;;;;4953603;28;45290;-69
2021/12/19 11:24:02;;;;;;;;;29.00;26.75;;;;;;;;4989118;28;47178;-69
2021/12/19 11:26:28;;;;;;;;;24.00;23.00;;;;;;;;5031844;28;45405;-69
2021/12/19 11:28:53;;;;;;;;;25.25;22.50;;;;;;;;5030660;28;45472;-69
2021/12/19 11:31:19;;;;;;;;;23.75;23.75;;;;;;;;5030095;28;45476;-70
2021/12/19 11:33:57;;;;;;;;;30.00;26.00;;;;;;;;5026568;28;46048;-69
2021/12/19 11:36:23;;;;;;;;;24.50;21.50;;;;;;;;5030987;28;45761;-69
2021/12/19 11:38:48;;;;;;;;;29.25;24.50;;;;;;;;5030868;28;45840;-70
2021/12/19 11:41:13;;;;;;;;;29.00;25.75;;;;;;;;5031435;28;45496;-70
2021/12/19 11:43:40;;;;;;;;;24.75;21.25;;;;;;;;5040772;28;45591;-69
2021/12/19 11:46:14;;;;;;;;;30.00;26.25;;;;;;;;5031453;28;45452;-69
2021/12/19 11:48:39;;;;;;;;;27.50;21.75;;;;;;;;5024845;28;45369;-72
2021/12/19 11:51:07;;;;;;;;;25.50;23.25;;;;;;;;5029276;28;45664;-69
2021/12/19 11:53:33;;;;;;;;;25.50;22.25;;;;;;;;5027980;28;45518;-70
2021/12/19 11:56:06;;;;;;;;;30.00;25.00;;;;;;;;5032335;28;45814;-70
2021/12/19 11:58:37;;;;;;;;;30.00;26.75;;;;;;;;5032157;28;45495;-69
2021/12/19 12:01:05;;;;;;;;;30.75;25.00;;;;;;;;5029736;28;45348;-70
2021/12/19 12:03:49;;;;;;;;;35.50;30.25;;;;;;;;5012217;28;48383;-70
2021/12/19 12:06:15;;;;;;;;;32.00;25.50;;;;;;;;5022052;28;45546;-71
2021/12/19 12:09:00;;;;;;;;;22.25;19.75;;;;;;;;5028495;28;45391;-72
2021/12/19 12:11:25;;;;;;;;;27.25;22.00;;;;;;;;5027860;28;45682;-71
2021/12/19 12:13:52;;;;;;;;;23.50;22.25;;;;;;;;5028814;28;45406;-69
2021/12/19 12:16:31;;;;;;;;;30.50;24.50;;;;;;;;5024428;28;45523;-71
2021/12/19 12:18:57;;;;;;;;;23.50;21.00;;;;;;;;5030795;28;45499;-71
2021/12/19 12:21:29;;;;;;;;;26.75;21.50;;;;;;;;5029767;28;45450;-71
2021/12/19 12:24:05;;;;;;;;;27.00;24.00;;;;;;;;5029976;28;46979;-72
2021/12/19 12:26:56;;;;;;;;;22.00;20.25;;;;;;;;5030330;28;46119;-73
2021/12/19 12:29:22;;;;;;;;;23.25;20.25;;;;;;;;5027506;28;45492;-72
2021/12/19 12:31:47;;;;;;;;;24.00;21.50;;;;;;;;5031446;28;45472;-71
2021/12/19 12:34:15;;;;;;;;;29.25;26.00;;;;;;;;5038047;28;46362;-74
2021/12/19 12:36:41;;;;;;;;;28.00;24.00;;;;;;;;5037494;28;45472;-69
2021/12/19 12:39:10;;;;;;;;;29.25;22.75;;;;;;;;5037371;28;45305;-70
2021/12/19 12:44:07;;;;;;;;;32.50;26.50;;;;;;;;5040187;28;45330;-70
2021/12/19 12:46:32;;;;;;;;;28.25;25.50;;;;;;;;5037905;28;45758;-70
2021/12/19 12:49:00;;;;;;;;;25.75;21.00;;;;;;;;5037684;28;45405;-70
2021/12/19 12:51:28;;;;;;;;;30.00;26.25;;;;;;;;5040360;28;45323;-70
2021/12/19 12:53:56;;;;;;;;;23.00;22.00;;;;;;;;5040866;28;47097;-69
2021/12/19 12:56:30;;;;;;;;;33.50;27.00;;;;;;;;5045654;28;45530;-68
2021/12/19 12:58:56;;;;;;;;;23.25;23.25;;;;;;;;5041182;28;45163;-70
2021/12/19 13:01:34;;;;;;;;;22.75;18.25;;;;;;;;5043906;28;45507;-70
2021/12/19 13:04:05;;;;;;;;;25.50;22.75;;;;;;;;5046752;28;46177;-68
2021/12/19 13:06:40;;;;;;;;;22.00;20.50;;;;;;;;5044546;28;45619;-74
2021/12/19 13:09:08;;;;;;;;;28.25;25.75;;;;;;;;5037135;28;45431;-68
2021/12/19 13:11:33;;;;;;;;;23.00;19.25;;;;;;;;5040493;28;45392;-68
2021/12/19 13:14:09;;;;;;;;;16.50;12.50;;;;;;;;5039177;28;45460;-66
2021/12/19 13:16:40;;;;;;;;;21.50;18.75;;;;;;;;5039298;28;45461;-67
2021/12/19 13:19:05;;;;;;;;;17.25;16.75;;;;;;;;5033886;28;45593;-67
2021/12/19 13:21:50;;;;;;;;;24.75;21.25;;;;;;;;5040006;28;45680;-66
2021/12/19 13:24:18;;;;;;;;;23.25;20.50;;;;;;;;5039424;28;46970;-68
2021/12/19 13:26:43;;;;;;;;;24.50;20.25;;;;;;;;5040451;28;45440;-68
2021/12/19 13:29:18;;;;;;;;;17.75;16.25;;;;;;;;5039081;28;45493;-68
2021/12/19 13:31:43;;;;;;;;;19.75;18.75;;;;;;;;5052727;28;45519;-68
2021/12/19 13:34:12;;;;;;;;;30.75;19.75;;;;;;;;5039760;28;47531;-71
2021/12/19 13:36:38;;;;;;;;;17.75;15.00;;;;;;;;5044935;28;45581;-68
2021/12/19 13:39:03;;;;;;;;;26.50;20.00;;;;;;;;5039977;28;45351;-68
2021/12/19 13:41:28;;;;;;;;;14.25;12.50;;;;;;;;5051864;28;45554;-69
2021/12/19 13:43:53;;;;;;;;;17.00;12.50;;;;;;;;5036456;28;45463;-68
2021/12/19 13:46:19;;;;;;;;;15.25;15.25;;;;;;;;5032099;28;45495;-69
2021/12/19 13:48:47;;;;;;;;;16.25;14.25;;;;;;;;5031741;28;45459;-69
2021/12/19 13:51:17;;;;;;;;;12.75;11.00;;;;;;;;5033908;28;45464;-69
2021/12/19 13:53:53;;;;;;;;;17.50;15.50;;;;;;;;5045942;28;46431;-69
2021/12/19 13:56:35;;;;;;;;;18.25;15.50;;;;;;;;5023626;28;45438;-69
2021/12/19 13:59:04;;;;;;;;;18.75;16.75;;;;;;;;5034592;28;45289;-69
2021/12/19 14:01:32;;;;;;;;;17.00;13.50;;;;;;;;5038242;28;45281;-69
2021/12/19 14:04:15;;;;;;;;;16.00;16.00;;;;;;;;5034318;28;46405;-68
2021/12/19 14:06:40;;;;;;;;;17.75;14.00;;;;;;;;5042666;28;45493;-78
2021/12/19 14:09:13;;;;;;;;;17.75;14.75;;;;;;;;5035997;28;45370;-77
2021/12/19 14:11:41;;;;;;;;;14.00;14.00;;;;;;;;5027736;28;45458;-76
2021/12/19 14:14:23;;;;;;;;;21.00;16.25;;;;;;;;5054943;28;46206;-77
2021/12/19 14:16:48;;;;;;;;;13.50;11.75;;;;;;;;5038412;28;45446;-77
2021/12/19 14:19:24;;;;;;;;;14.75;14.00;;;;;;;;5041650;28;45659;-76
2021/12/19 14:21:50;;;;;;;;;18.50;14.00;;;;;;;;5032948;28;45405;-79
2021/12/19 14:24:17;;;;;;;;;17.00;14.00;;;;;;;;5032771;28;46346;-79
2021/12/19 14:26:46;;;;;;;;;20.50;13.25;;;;;;;;5032565;28;45963;-79
2021/12/19 14:29:26;;;;;;;;;16.75;14.25;;;;;;;;5039545;28;45379;-80
2021/12/19 14:31:56;;;;;;;;;15.50;13.00;;;;;;;;5036087;28;45555;-78
2021/12/19 14:34:31;;;;;;;;;13.50;11.50;;;;;;;;5034465;28;47183;-79
2021/12/19 14:37:10;;;;;;;;;12.00;8.00;;;;;;;;5025328;28;45448;-78
2021/12/19 14:39:35;;;;;;;;;12.25;11.50;;;;;;;;5034280;28;45423;-77
2021/12/19 14:42:11;;;;;;;;;13.25;10.50;;;;;;;;5035900;28;45147;-75
2021/12/19 14:44:36;;;;;;;;;16.50;13.50;;;;;;;;5033488;28;45420;-77
2021/12/19 14:47:02;;;;;;;;;10.25;9.00;;;;;;;;5036122;28;45519;-77
2021/12/19 14:49:43;;;;;;;;;14.25;8.50;;;;;;;;5030142;28;45928;-73
2021/12/19 14:52:09;;;;;;;;;8.25;7.50;;;;;;;;5029709;28;45504;-73
2021/12/19 14:54:34;;;;;;;;;10.50;7.00;;;;;;;;5030051;28;45383;-74
2021/12/19 14:57:00;;;;;;;;;12.25;8.25;;;;;;;;5027988;28;45539;-73
2021/12/19 14:59:27;;;;;;;;;13.25;12.50;;;;;;;;5031799;28;45520;-74
2021/12/19 15:01:53;;;;;;;;;8.00;8.00;;;;;;;;5024480;28;45388;-73
2021/12/19 15:04:19;;;;;;;;;12.00;9.50;;;;;;;;5031515;28;45683;-74
2021/12/19 15:06:46;;;;;;;;;11.00;10.25;;;;;;;;5028928;28;45567;-74
2021/12/19 15:09:14;;;;;;;;;12.00;12.00;;;;;;;;5028809;28;45491;-74
2021/12/19 15:11:40;;;;;;;;;13.75;13.00;;;;;;;;5030742;28;45525;-73
2021/12/19 15:14:06;;;;;;;;;16.00;9.75;;;;;;;;5031073;28;45326;-75
2021/12/19 15:16:34;;;;;;;;;15.00;13.75;;;;;;;;5027482;28;45574;-74
2021/12/19 15:19:04;;;;;;;;;17.25;14.50;;;;;;;;5031250;28;45491;-73
2021/12/19 15:21:30;;;;;;;;;15.25;14.75;;;;;;;;5033289;28;46488;-74
2021/12/19 15:23:56;;;;;;;;;17.50;14.25;;;;;;;;5030236;28;46231;-75
2021/12/19 15:26:21;;;;;;;;;20.25;18.00;;;;;;;;5029212;28;45579;-74
2021/12/19 15:28:48;;;;;;;;;23.25;18.25;;;;;;;;5033804;28;46231;-74
2021/12/19 15:31:18;;;;;;;;;13.75;12.75;;;;;;;;5007762;28;45618;-74
2021/12/19 15:33:44;;;;;;;;;21.50;19.50;;;;;;;;5034029;28;45579;-75
2021/12/19 15:36:09;;;;;;;;;14.50;12.75;;;;;;;;5033746;28;45492;-75
2021/12/19 15:38:35;;;;;;;;;21.50;15.50;;;;;;;;5033565;28;45360;-76